sensor_id;sensor_type;location;lat;lon;timestamp;temperature;humidity
69595;DHT22;56800;52.142;5.364;2022-08-07T00:00:35;15.70;63.50
69595;DHT22;56800;52.142;5.364;2022-08-07T00:03:06;15.70;63.60
69595;DHT22;56800;52.142;5.364;2022-08-07T00:05:34;15.60;63.60
69595;DHT22;56800;52.142;5.364;2022-08-07T00:08:03;15.60;63.70
69595;DHT22;56800;52.142;5.364;2022-08-07T00:10:30;15.60;63.70
69595;DHT22;56800;52.142;5.364;2022-08-07T00:12:59;15.60;63.70
69595;DHT22;56800;52.142;5.364;2022-08-07T00:15:35;15.60;63.70
69595;DHT22;56800;52.142;5.364;2022-08-07T00:18:13;15.50;63.70
69595;DHT22;56800;52.142;5.364;2022-08-07T00:20:52;15.50;63.80
69595;DHT22;56800;52.142;5.364;2022-08-07T00:23:19;15.50;63.90
69595;DHT22;56800;52.142;5.364;2022-08-07T00:25:47;15.40;64.00
69595;DHT22;56800;52.142;5.364;2022-08-07T00:28:28;15.40;64.10
69595;DHT22;56800;52.142;5.364;2022-08-07T00:31:01;15.40;64.20
69595;DHT22;56800;52.142;5.364;2022-08-07T00:33:32;15.40;64.30
69595;DHT22;56800;52.142;5.364;2022-08-07T00:35:59;15.40;64.40
69595;DHT22;56800;52.142;5.364;2022-08-07T00:38:26;15.30;64.50
69595;DHT22;56800;52.142;5.364;2022-08-07T00:40:59;15.30;64.50
69595;DHT22;56800;52.142;5.364;2022-08-07T00:43:26;15.30;64.60
69595;DHT22;56800;52.142;5.364;2022-08-07T00:46:13;15.30;64.70
69595;DHT22;56800;52.142;5.364;2022-08-07T00:48:40;15.30;64.70
69595;DHT22;56800;52.142;5.364;2022-08-07T00:51:08;15.20;64.70
69595;DHT22;56800;52.142;5.364;2022-08-07T00:53:35;15.20;64.90
69595;DHT22;56800;52.142;5.364;2022-08-07T00:56:15;15.20;64.90
69595;DHT22;56800;52.142;5.364;2022-08-07T00:58:43;15.20;65.00
69595;DHT22;56800;52.142;5.364;2022-08-07T01:01:15;15.20;65.00
69595;DHT22;56800;52.142;5.364;2022-08-07T01:03:43;15.20;65.10
69595;DHT22;56800;52.142;5.364;2022-08-07T01:06:27;15.10;65.10
69595;DHT22;56800;52.142;5.364;2022-08-07T01:08:55;15.10;65.10
69595;DHT22;56800;52.142;5.364;2022-08-07T01:11:30;15.10;65.20
69595;DHT22;56800;52.142;5.364;2022-08-07T01:14:19;15.10;65.20
69595;DHT22;56800;52.142;5.364;2022-08-07T01:16:53;15.00;65.30
69595;DHT22;56800;52.142;5.364;2022-08-07T01:19:21;15.00;65.40
69595;DHT22;56800;52.142;5.364;2022-08-07T01:21:50;15.00;65.40
69595;DHT22;56800;52.142;5.364;2022-08-07T01:24:21;15.00;65.50
69595;DHT22;56800;52.142;5.364;2022-08-07T01:26:51;15.00;65.50
69595;DHT22;56800;52.142;5.364;2022-08-07T01:29:23;15.00;65.70
69595;DHT22;56800;52.142;5.364;2022-08-07T01:31:57;15.00;65.70
69595;DHT22;56800;52.142;5.364;2022-08-07T01:34:25;14.90;65.70
69595;DHT22;56800;52.142;5.364;2022-08-07T01:36:57;14.90;65.80
69595;DHT22;56800;52.142;5.364;2022-08-07T01:39:25;14.80;65.80
69595;DHT22;56800;52.142;5.364;2022-08-07T01:42:13;14.90;65.90
69595;DHT22;56800;52.142;5.364;2022-08-07T01:45:01;14.90;65.90
69595;DHT22;56800;52.142;5.364;2022-08-07T01:47:29;14.80;66.00
69595;DHT22;56800;52.142;5.364;2022-08-07T01:50:16;14.80;66.00
69595;DHT22;56800;52.142;5.364;2022-08-07T01:52:56;14.80;66.10
69595;DHT22;56800;52.142;5.364;2022-08-07T01:55:30;14.80;66.10
69595;DHT22;56800;52.142;5.364;2022-08-07T01:58:00;14.70;66.20
69595;DHT22;56800;52.142;5.364;2022-08-07T02:00:58;14.70;66.20
69595;DHT22;56800;52.142;5.364;2022-08-07T02:03:50;14.70;66.30
69595;DHT22;56800;52.142;5.364;2022-08-07T02:06:19;14.70;66.40
69595;DHT22;56800;52.142;5.364;2022-08-07T02:08:59;14.70;66.40
69595;DHT22;56800;52.142;5.364;2022-08-07T02:11:32;14.70;66.50
69595;DHT22;56800;52.142;5.364;2022-08-07T02:14:21;14.70;66.60
69595;DHT22;56800;52.142;5.364;2022-08-07T02:17:07;14.60;66.60
69595;DHT22;56800;52.142;5.364;2022-08-07T02:19:37;14.60;66.70
69595;DHT22;56800;52.142;5.364;2022-08-07T02:22:25;14.60;66.80
69595;DHT22;56800;52.142;5.364;2022-08-07T02:24:54;14.60;66.90
69595;DHT22;56800;52.142;5.364;2022-08-07T02:27:24;14.60;67.00
69595;DHT22;56800;52.142;5.364;2022-08-07T02:30:01;14.60;67.00
69595;DHT22;56800;52.142;5.364;2022-08-07T02:32:33;14.60;67.00
69595;DHT22;56800;52.142;5.364;2022-08-07T02:35:06;14.60;67.10
69595;DHT22;56800;52.142;5.364;2022-08-07T02:37:38;14.50;67.10
69595;DHT22;56800;52.142;5.364;2022-08-07T02:40:10;14.50;67.10
69595;DHT22;56800;52.142;5.364;2022-08-07T02:42:57;14.50;67.20
69595;DHT22;56800;52.142;5.364;2022-08-07T02:45:29;14.50;67.20
69595;DHT22;56800;52.142;5.364;2022-08-07T02:48:16;14.50;67.30
69595;DHT22;56800;52.142;5.364;2022-08-07T02:50:48;14.40;67.20
69595;DHT22;56800;52.142;5.364;2022-08-07T02:53:25;14.40;67.20
69595;DHT22;56800;52.142;5.364;2022-08-07T02:55:55;14.40;67.40
69595;DHT22;56800;52.142;5.364;2022-08-07T02:58:30;14.40;67.40
69595;DHT22;56800;52.142;5.364;2022-08-07T03:01:00;14.40;67.40
69595;DHT22;56800;52.142;5.364;2022-08-07T03:03:31;14.40;67.50
69595;DHT22;56800;52.142;5.364;2022-08-07T03:06:16;14.30;67.50
69595;DHT22;56800;52.142;5.364;2022-08-07T03:09:03;14.30;67.60
69595;DHT22;56800;52.142;5.364;2022-08-07T03:11:32;14.30;67.60
69595;DHT22;56800;52.142;5.364;2022-08-07T03:14:17;14.30;67.70
69595;DHT22;56800;52.142;5.364;2022-08-07T03:16:48;14.30;67.70
69595;DHT22;56800;52.142;5.364;2022-08-07T03:19:15;14.30;67.70
69595;DHT22;56800;52.142;5.364;2022-08-07T03:21:46;14.30;67.80
69595;DHT22;56800;52.142;5.364;2022-08-07T03:24:16;14.30;67.80
69595;DHT22;56800;52.142;5.364;2022-08-07T03:26:54;14.30;67.90
69595;DHT22;56800;52.142;5.364;2022-08-07T03:29:34;14.30;67.90
69595;DHT22;56800;52.142;5.364;2022-08-07T03:32:06;14.30;68.00
69595;DHT22;56800;52.142;5.364;2022-08-07T03:34:40;14.30;68.10
69595;DHT22;56800;52.142;5.364;2022-08-07T03:37:27;14.30;68.10
69595;DHT22;56800;52.142;5.364;2022-08-07T03:39:58;14.30;68.10
69595;DHT22;56800;52.142;5.364;2022-08-07T03:42:42;14.30;68.20
69595;DHT22;56800;52.142;5.364;2022-08-07T03:45:09;14.30;68.30
69595;DHT22;56800;52.142;5.364;2022-08-07T03:47:37;14.30;68.30
69595;DHT22;56800;52.142;5.364;2022-08-07T03:50:20;14.20;68.30
69595;DHT22;56800;52.142;5.364;2022-08-07T03:52:50;14.20;68.40
69595;DHT22;56800;52.142;5.364;2022-08-07T03:55:17;14.20;68.50
69595;DHT22;56800;52.142;5.364;2022-08-07T03:57:45;14.20;68.60
69595;DHT22;56800;52.142;5.364;2022-08-07T04:00:32;14.20;68.60
69595;DHT22;56800;52.142;5.364;2022-08-07T04:03:02;14.20;68.60
69595;DHT22;56800;52.142;5.364;2022-08-07T04:05:33;14.20;68.60
69595;DHT22;56800;52.142;5.364;2022-08-07T04:08:12;14.10;68.70
69595;DHT22;56800;52.142;5.364;2022-08-07T04:10:44;14.20;68.70
69595;DHT22;56800;52.142;5.364;2022-08-07T04:13:24;14.10;68.60
69595;DHT22;56800;52.142;5.364;2022-08-07T04:15:53;14.10;68.70
69595;DHT22;56800;52.142;5.364;2022-08-07T04:18:20;14.10;68.70
69595;DHT22;56800;52.142;5.364;2022-08-07T04:21:07;14.10;68.80
69595;DHT22;56800;52.142;5.364;2022-08-07T04:23:34;14.10;68.80
69595;DHT22;56800;52.142;5.364;2022-08-07T04:26:21;14.10;68.90
69595;DHT22;56800;52.142;5.364;2022-08-07T04:28:53;14.10;68.90
69595;DHT22;56800;52.142;5.364;2022-08-07T04:31:23;14.10;68.90
69595;DHT22;56800;52.142;5.364;2022-08-07T04:34:09;14.10;68.90
69595;DHT22;56800;52.142;5.364;2022-08-07T04:36:42;14.10;68.80
69595;DHT22;56800;52.142;5.364;2022-08-07T04:39:10;14.10;69.00
69595;DHT22;56800;52.142;5.364;2022-08-07T04:41:37;14.10;69.00
69595;DHT22;56800;52.142;5.364;2022-08-07T04:44:08;14.10;69.10
69595;DHT22;56800;52.142;5.364;2022-08-07T04:46:51;14.10;69.10
69595;DHT22;56800;52.142;5.364;2022-08-07T04:50:00;14.10;69.20
69595;DHT22;56800;52.142;5.364;2022-08-07T04:52:49;14.10;69.20
69595;DHT22;56800;52.142;5.364;2022-08-07T04:58:47;14.10;69.20
69595;DHT22;56800;52.142;5.364;2022-08-07T05:01:44;14.10;69.20
69595;DHT22;56800;52.142;5.364;2022-08-07T05:07:57;14.10;69.20
69595;DHT22;56800;52.142;5.364;2022-08-07T05:10:32;14.10;69.20
69595;DHT22;56800;52.142;5.364;2022-08-07T05:13:13;14.10;69.20
69595;DHT22;56800;52.142;5.364;2022-08-07T05:16:05;14.20;69.40
69595;DHT22;56800;52.142;5.364;2022-08-07T05:18:35;14.20;69.40
69595;DHT22;56800;52.142;5.364;2022-08-07T05:21:07;14.20;69.40
69595;DHT22;56800;52.142;5.364;2022-08-07T05:23:49;14.30;69.50
69595;DHT22;56800;52.142;5.364;2022-08-07T05:26:19;14.30;69.60
69595;DHT22;56800;52.142;5.364;2022-08-07T05:28:51;14.30;69.60
69595;DHT22;56800;52.142;5.364;2022-08-07T05:31:23;14.30;69.70
69595;DHT22;56800;52.142;5.364;2022-08-07T05:34:01;14.40;69.70
69595;DHT22;56800;52.142;5.364;2022-08-07T05:36:32;14.40;69.70
69595;DHT22;56800;52.142;5.364;2022-08-07T05:39:02;14.50;69.80
69595;DHT22;56800;52.142;5.364;2022-08-07T05:41:49;14.50;70.20
69595;DHT22;56800;52.142;5.364;2022-08-07T05:44:29;14.50;69.80
69595;DHT22;56800;52.142;5.364;2022-08-07T05:46:59;14.60;69.80
69595;DHT22;56800;52.142;5.364;2022-08-07T05:49:46;14.70;69.90
69595;DHT22;56800;52.142;5.364;2022-08-07T05:52:13;14.60;69.70
69595;DHT22;56800;52.142;5.364;2022-08-07T05:54:45;14.70;69.80
69595;DHT22;56800;52.142;5.364;2022-08-07T05:57:25;14.80;69.80
69595;DHT22;56800;52.142;5.364;2022-08-07T06:00:00;14.80;69.80
69595;DHT22;56800;52.142;5.364;2022-08-07T06:02:29;14.80;69.60
69595;DHT22;56800;52.142;5.364;2022-08-07T06:05:04;14.90;69.60
69595;DHT22;56800;52.142;5.364;2022-08-07T06:07:36;14.90;69.60
69595;DHT22;56800;52.142;5.364;2022-08-07T06:10:23;15.00;69.40
69595;DHT22;56800;52.142;5.364;2022-08-07T06:12:51;15.00;69.30
69595;DHT22;56800;52.142;5.364;2022-08-07T06:15:20;15.20;69.20
69595;DHT22;56800;52.142;5.364;2022-08-07T06:18:06;15.20;69.00
69595;DHT22;56800;52.142;5.364;2022-08-07T06:20:35;15.30;68.90
69595;DHT22;56800;52.142;5.364;2022-08-07T06:23:22;15.30;68.90
69595;DHT22;56800;52.142;5.364;2022-08-07T06:26:13;15.40;69.00
69595;DHT22;56800;52.142;5.364;2022-08-07T06:28:53;15.50;68.90
69595;DHT22;56800;52.142;5.364;2022-08-07T06:31:20;15.50;68.70
69595;DHT22;56800;52.142;5.364;2022-08-07T06:34:07;15.60;68.50
69595;DHT22;56800;52.142;5.364;2022-08-07T06:36:36;15.70;68.20
69595;DHT22;56800;52.142;5.364;2022-08-07T06:39:04;15.70;67.90
69595;DHT22;56800;52.142;5.364;2022-08-07T06:42:07;15.80;67.80
69595;DHT22;56800;52.142;5.364;2022-08-07T06:44:37;15.90;67.50
69595;DHT22;56800;52.142;5.364;2022-08-07T06:47:05;15.90;68.10
69595;DHT22;56800;52.142;5.364;2022-08-07T06:49:38;16.00;67.20
69595;DHT22;56800;52.142;5.364;2022-08-07T06:52:18;16.10;67.00
69595;DHT22;56800;52.142;5.364;2022-08-07T06:55:02;16.10;66.80
69595;DHT22;56800;52.142;5.364;2022-08-07T06:57:50;16.20;66.70
69595;DHT22;56800;52.142;5.364;2022-08-07T07:00:23;16.30;66.40
69595;DHT22;56800;52.142;5.364;2022-08-07T07:03:14;16.30;66.20
69595;DHT22;56800;52.142;5.364;2022-08-07T07:05:42;16.40;65.90
69595;DHT22;56800;52.142;5.364;2022-08-07T07:08:30;16.50;65.80
69595;DHT22;56800;52.142;5.364;2022-08-07T07:11:00;16.50;65.60
69595;DHT22;56800;52.142;5.364;2022-08-07T07:14:01;16.60;65.40
69595;DHT22;56800;52.142;5.364;2022-08-07T07:16:46;16.70;65.00
69595;DHT22;56800;52.142;5.364;2022-08-07T07:19:24;16.80;64.60
69595;DHT22;56800;52.142;5.364;2022-08-07T07:22:14;16.80;64.40
69595;DHT22;56800;52.142;5.364;2022-08-07T07:25:06;16.90;64.40
69595;DHT22;56800;52.142;5.364;2022-08-07T07:28:22;17.00;64.10
69595;DHT22;56800;52.142;5.364;2022-08-07T07:31:34;17.10;63.80
69595;DHT22;56800;52.142;5.364;2022-08-07T07:34:12;17.20;63.60
69595;DHT22;56800;52.142;5.364;2022-08-07T07:36:43;17.20;63.50
69595;DHT22;56800;52.142;5.364;2022-08-07T07:39:21;17.30;63.30
69595;DHT22;56800;52.142;5.364;2022-08-07T07:42:01;17.40;63.00
69595;DHT22;56800;52.142;5.364;2022-08-07T07:44:44;17.50;62.30
69595;DHT22;56800;52.142;5.364;2022-08-07T07:47:15;17.50;62.40
69595;DHT22;56800;52.142;5.364;2022-08-07T07:49:51;17.60;62.40
69595;DHT22;56800;52.142;5.364;2022-08-07T07:52:40;17.70;62.20
69595;DHT22;56800;52.142;5.364;2022-08-07T07:55:08;17.80;62.20
69595;DHT22;56800;52.142;5.364;2022-08-07T07:57:42;17.90;62.20
69595;DHT22;56800;52.142;5.364;2022-08-07T08:00:31;18.00;62.10
69595;DHT22;56800;52.142;5.364;2022-08-07T08:03:12;18.10;61.80
69595;DHT22;56800;52.142;5.364;2022-08-07T08:06:15;18.20;61.50
69595;DHT22;56800;52.142;5.364;2022-08-07T08:09:01;18.30;61.20
69595;DHT22;56800;52.142;5.364;2022-08-07T08:11:53;18.30;60.90
69595;DHT22;56800;52.142;5.364;2022-08-07T08:15:38;18.40;60.70
69595;DHT22;56800;52.142;5.364;2022-08-07T08:18:24;18.60;60.40
69595;DHT22;56800;52.142;5.364;2022-08-07T08:21:04;18.70;60.10
69595;DHT22;56800;52.142;5.364;2022-08-07T08:24:24;18.70;59.80
69595;DHT22;56800;52.142;5.364;2022-08-07T08:27:30;18.80;59.60
69595;DHT22;56800;52.142;5.364;2022-08-07T08:30:10;18.90;59.50
69595;DHT22;56800;52.142;5.364;2022-08-07T08:32:58;19.00;59.10
69595;DHT22;56800;52.142;5.364;2022-08-07T08:35:50;19.10;58.90
69595;DHT22;56800;52.142;5.364;2022-08-07T08:38:45;19.20;58.90
69595;DHT22;56800;52.142;5.364;2022-08-07T08:41:46;19.30;58.80
69595;DHT22;56800;52.142;5.364;2022-08-07T08:52:25;19.70;56.70
69595;DHT22;56800;52.142;5.364;2022-08-07T09:01:36;20.00;55.10
69595;DHT22;56800;52.142;5.364;2022-08-07T09:04:46;20.20;55.20
69595;DHT22;56800;52.142;5.364;2022-08-07T09:11:35;20.50;54.20
69595;DHT22;56800;52.142;5.364;2022-08-07T09:14:40;20.70;53.50
69595;DHT22;56800;52.142;5.364;2022-08-07T09:24:46;21.00;52.00
69595;DHT22;56800;52.142;5.364;2022-08-07T09:28:09;21.10;51.60
69595;DHT22;56800;52.142;5.364;2022-08-07T09:31:18;21.10;51.30
69595;DHT22;56800;52.142;5.364;2022-08-07T09:38:24;21.40;50.70
69595;DHT22;56800;52.142;5.364;2022-08-07T09:44:48;21.60;50.10
69595;DHT22;56800;52.142;5.364;2022-08-07T09:48:07;21.70;50.20
69595;DHT22;56800;52.142;5.364;2022-08-07T10:10:39;22.40;48.50
69595;DHT22;56800;52.142;5.364;2022-08-07T10:15:23;22.50;48.60
69595;DHT22;56800;52.142;5.364;2022-08-07T10:18:33;22.70;47.80
69595;DHT22;56800;52.142;5.364;2022-08-07T10:33:20;23.40;46.20
69595;DHT22;56800;52.142;5.364;2022-08-07T10:36:34;23.50;46.00
69595;DHT22;56800;52.142;5.364;2022-08-07T10:43:14;23.60;45.10
69595;DHT22;56800;52.142;5.364;2022-08-07T10:49:08;23.80;45.20
69595;DHT22;56800;52.142;5.364;2022-08-07T10:52:24;23.90;45.10
69595;DHT22;56800;52.142;5.364;2022-08-07T10:55:16;23.90;44.40
69595;DHT22;56800;52.142;5.364;2022-08-07T11:01:44;23.90;45.20
69595;DHT22;56800;52.142;5.364;2022-08-07T11:08:28;24.00;44.50
69595;DHT22;56800;52.142;5.364;2022-08-07T11:14:38;24.10;43.50
69595;DHT22;56800;52.142;5.364;2022-08-07T11:18:00;24.00;44.50
69595;DHT22;56800;52.142;5.364;2022-08-07T11:21:24;23.90;42.20
69595;DHT22;56800;52.142;5.364;2022-08-07T11:25:31;23.90;43.00
69595;DHT22;56800;52.142;5.364;2022-08-07T11:28:29;24.00;43.40
69595;DHT22;56800;52.142;5.364;2022-08-07T11:34:53;24.00;43.20
69595;DHT22;56800;52.142;5.364;2022-08-07T11:43:23;24.00;43.00
69595;DHT22;56800;52.142;5.364;2022-08-07T11:52:35;24.30;42.70
69595;DHT22;56800;52.142;5.364;2022-08-07T11:55:51;24.40;42.40
69595;DHT22;56800;52.142;5.364;2022-08-07T12:08:32;24.50;41.70
69595;DHT22;56800;52.142;5.364;2022-08-07T12:11:23;24.50;41.40
69595;DHT22;56800;52.142;5.364;2022-08-07T12:14:26;24.50;41.10
69595;DHT22;56800;52.142;5.364;2022-08-07T12:17:10;24.60;40.80
69595;DHT22;56800;52.142;5.364;2022-08-07T12:20:07;24.60;40.90
69595;DHT22;56800;52.142;5.364;2022-08-07T12:23:15;24.70;40.50
69595;DHT22;56800;52.142;5.364;2022-08-07T12:26:13;24.70;40.30
69595;DHT22;56800;52.142;5.364;2022-08-07T12:32:08;24.80;39.80
69595;DHT22;56800;52.142;5.364;2022-08-07T12:34:50;24.80;39.80
69595;DHT22;56800;52.142;5.364;2022-08-07T12:37:45;24.90;39.60
69595;DHT22;56800;52.142;5.364;2022-08-07T12:40:52;25.00;39.00
69595;DHT22;56800;52.142;5.364;2022-08-07T12:43:29;25.00;38.60
69595;DHT22;56800;52.142;5.364;2022-08-07T12:49:36;25.10;38.00
69595;DHT22;56800;52.142;5.364;2022-08-07T12:57:37;25.30;36.60
69595;DHT22;56800;52.142;5.364;2022-08-07T13:00:37;25.40;36.40
69595;DHT22;56800;52.142;5.364;2022-08-07T13:03:34;25.50;35.90
69595;DHT22;56800;52.142;5.364;2022-08-07T13:06:52;25.50;35.70
69595;DHT22;56800;52.142;5.364;2022-08-07T13:20:44;25.70;35.80
69595;DHT22;56800;52.142;5.364;2022-08-07T13:26:54;26.00;35.10
69595;DHT22;56800;52.142;5.364;2022-08-07T13:29:25;26.20;34.80
69595;DHT22;56800;52.142;5.364;2022-08-07T13:32:03;26.40;34.90
69595;DHT22;56800;52.142;5.364;2022-08-07T13:35:37;26.50;34.70
69595;DHT22;56800;52.142;5.364;2022-08-07T13:38:03;26.60;34.40
69595;DHT22;56800;52.142;5.364;2022-08-07T13:44:03;27.00;33.90
69595;DHT22;56800;52.142;5.364;2022-08-07T13:46:49;27.20;33.20
69595;DHT22;56800;52.142;5.364;2022-08-07T13:49:35;27.40;33.20
69595;DHT22;56800;52.142;5.364;2022-08-07T13:52:25;27.70;33.40
69595;DHT22;56800;52.142;5.364;2022-08-07T13:55:17;27.90;33.00
69595;DHT22;56800;52.142;5.364;2022-08-07T13:58:10;28.00;32.60
69595;DHT22;56800;52.142;5.364;2022-08-07T14:01:00;28.20;33.00
69595;DHT22;56800;52.142;5.364;2022-08-07T14:03:45;28.40;31.90
69595;DHT22;56800;52.142;5.364;2022-08-07T14:06:36;28.50;31.50
69595;DHT22;56800;52.142;5.364;2022-08-07T14:09:07;28.60;31.40
69595;DHT22;56800;52.142;5.364;2022-08-07T14:11:52;28.70;30.90
69595;DHT22;56800;52.142;5.364;2022-08-07T14:14:42;28.70;30.00
69595;DHT22;56800;52.142;5.364;2022-08-07T14:17:14;28.80;30.10
69595;DHT22;56800;52.142;5.364;2022-08-07T14:20:30;28.90;30.10
69595;DHT22;56800;52.142;5.364;2022-08-07T14:23:27;29.00;30.10
69595;DHT22;56800;52.142;5.364;2022-08-07T14:26:22;29.10;30.30
69595;DHT22;56800;52.142;5.364;2022-08-07T14:29:04;29.20;31.40
69595;DHT22;56800;52.142;5.364;2022-08-07T14:32:05;29.30;29.80
69595;DHT22;56800;52.142;5.364;2022-08-07T14:34:44;29.40;29.70
69595;DHT22;56800;52.142;5.364;2022-08-07T14:37:16;29.40;29.20
69595;DHT22;56800;52.142;5.364;2022-08-07T14:40:24;29.40;29.30
69595;DHT22;56800;52.142;5.364;2022-08-07T14:45:58;28.90;29.00
69595;DHT22;56800;52.142;5.364;2022-08-07T14:48:34;28.70;29.10
69595;DHT22;56800;52.142;5.364;2022-08-07T14:51:06;28.70;29.50
69595;DHT22;56800;52.142;5.364;2022-08-07T14:53:43;28.70;29.70
69595;DHT22;56800;52.142;5.364;2022-08-07T14:56:31;28.80;29.90
69595;DHT22;56800;52.142;5.364;2022-08-07T14:59:21;28.80;30.00
69595;DHT22;56800;52.142;5.364;2022-08-07T15:02:16;29.00;30.00
69595;DHT22;56800;52.142;5.364;2022-08-07T15:05:07;29.00;29.80
69595;DHT22;56800;52.142;5.364;2022-08-07T15:07:56;29.00;29.70
69595;DHT22;56800;52.142;5.364;2022-08-07T15:10:26;29.00;29.70
69595;DHT22;56800;52.142;5.364;2022-08-07T15:13:18;29.00;29.90
69595;DHT22;56800;52.142;5.364;2022-08-07T15:15:56;28.90;30.00
69595;DHT22;56800;52.142;5.364;2022-08-07T15:18:34;28.90;30.30
69595;DHT22;56800;52.142;5.364;2022-08-07T15:21:17;29.00;30.50
69595;DHT22;56800;52.142;5.364;2022-08-07T15:24:08;29.00;30.50
69595;DHT22;56800;52.142;5.364;2022-08-07T15:27:26;28.80;30.30
69595;DHT22;56800;52.142;5.364;2022-08-07T15:30:19;28.60;31.00
69595;DHT22;56800;52.142;5.364;2022-08-07T15:33:29;28.50;31.40
69595;DHT22;56800;52.142;5.364;2022-08-07T15:36:04;28.30;31.90
69595;DHT22;56800;52.142;5.364;2022-08-07T15:38:55;28.10;31.80
69595;DHT22;56800;52.142;5.364;2022-08-07T15:42:05;28.00;32.10
69595;DHT22;56800;52.142;5.364;2022-08-07T15:45:08;27.80;32.60
69595;DHT22;56800;52.142;5.364;2022-08-07T15:47:52;27.70;32.80
69595;DHT22;56800;52.142;5.364;2022-08-07T15:50:43;27.60;32.70
69595;DHT22;56800;52.142;5.364;2022-08-07T15:53:51;27.40;33.00
69595;DHT22;56800;52.142;5.364;2022-08-07T15:56:34;27.20;33.90
69595;DHT22;56800;52.142;5.364;2022-08-07T15:59:12;27.20;33.90
69595;DHT22;56800;52.142;5.364;2022-08-07T16:01:48;27.20;33.70
69595;DHT22;56800;52.142;5.364;2022-08-07T16:05:20;27.10;33.80
69595;DHT22;56800;52.142;5.364;2022-08-07T16:08:33;27.10;34.20
69595;DHT22;56800;52.142;5.364;2022-08-07T16:11:10;27.10;34.10
69595;DHT22;56800;52.142;5.364;2022-08-07T16:14:18;27.10;34.20
69595;DHT22;56800;52.142;5.364;2022-08-07T16:17:05;27.00;34.00
69595;DHT22;56800;52.142;5.364;2022-08-07T16:32:29;26.80;35.00
69595;DHT22;56800;52.142;5.364;2022-08-07T16:38:29;26.80;35.70
69595;DHT22;56800;52.142;5.364;2022-08-07T16:51:19;26.50;36.30
69595;DHT22;56800;52.142;5.364;2022-08-07T16:59:51;26.30;37.20
69595;DHT22;56800;52.142;5.364;2022-08-07T17:02:27;26.30;37.00
69595;DHT22;56800;52.142;5.364;2022-08-07T17:11:35;26.20;37.00
69595;DHT22;56800;52.142;5.364;2022-08-07T17:20:37;26.10;37.50
69595;DHT22;56800;52.142;5.364;2022-08-07T17:23:50;26.00;37.60
69595;DHT22;56800;52.142;5.364;2022-08-07T17:26:24;25.90;37.70
69595;DHT22;56800;52.142;5.364;2022-08-07T17:29:03;25.90;38.00
69595;DHT22;56800;52.142;5.364;2022-08-07T17:31:56;25.90;38.10
69595;DHT22;56800;52.142;5.364;2022-08-07T17:34:56;25.90;38.10
69595;DHT22;56800;52.142;5.364;2022-08-07T17:38:03;25.90;38.30
69595;DHT22;56800;52.142;5.364;2022-08-07T17:41:01;25.80;38.20
69595;DHT22;56800;52.142;5.364;2022-08-07T17:43:55;25.60;38.20
69595;DHT22;56800;52.142;5.364;2022-08-07T17:46:36;25.40;38.20
69595;DHT22;56800;52.142;5.364;2022-08-07T17:49:23;25.30;38.50
69595;DHT22;56800;52.142;5.364;2022-08-07T17:54:42;25.00;39.20
69595;DHT22;56800;52.142;5.364;2022-08-07T18:00:20;24.80;39.50
69595;DHT22;56800;52.142;5.364;2022-08-07T18:03:30;24.70;39.80
69595;DHT22;56800;52.142;5.364;2022-08-07T18:06:22;24.50;40.00
69595;DHT22;56800;52.142;5.364;2022-08-07T18:09:05;24.40;40.20
69595;DHT22;56800;52.142;5.364;2022-08-07T18:11:47;24.30;40.50
69595;DHT22;56800;52.142;5.364;2022-08-07T18:14:49;24.30;41.00
69595;DHT22;56800;52.142;5.364;2022-08-07T18:20:33;24.00;41.20
69595;DHT22;56800;52.142;5.364;2022-08-07T18:23:52;23.90;41.60
69595;DHT22;56800;52.142;5.364;2022-08-07T18:29:10;23.70;42.10
69595;DHT22;56800;52.142;5.364;2022-08-07T18:32:17;23.60;42.50
69595;DHT22;56800;52.142;5.364;2022-08-07T18:41:27;23.30;43.40
69595;DHT22;56800;52.142;5.364;2022-08-07T18:58:49;22.80;45.40
69595;DHT22;56800;52.142;5.364;2022-08-07T19:02:05;22.70;45.80
69595;DHT22;56800;52.142;5.364;2022-08-07T19:05:02;22.60;47.00
69595;DHT22;56800;52.142;5.364;2022-08-07T19:11:11;22.40;46.50
69595;DHT22;56800;52.142;5.364;2022-08-07T19:14:13;22.30;46.80
69595;DHT22;56800;52.142;5.364;2022-08-07T19:16:52;22.20;47.00
69595;DHT22;56800;52.142;5.364;2022-08-07T19:20:11;22.10;47.20
69595;DHT22;56800;52.142;5.364;2022-08-07T19:23:22;22.10;48.50
69595;DHT22;56800;52.142;5.364;2022-08-07T19:26:12;22.00;47.80
69595;DHT22;56800;52.142;5.364;2022-08-07T19:29:03;21.90;48.00
69595;DHT22;56800;52.142;5.364;2022-08-07T19:31:52;21.80;48.40
69595;DHT22;56800;52.142;5.364;2022-08-07T19:34:41;21.70;48.40
69595;DHT22;56800;52.142;5.364;2022-08-07T19:37:16;21.70;48.70
69595;DHT22;56800;52.142;5.364;2022-08-07T19:39:54;21.60;49.00
69595;DHT22;56800;52.142;5.364;2022-08-07T19:42:29;21.50;49.40
69595;DHT22;56800;52.142;5.364;2022-08-07T19:45:20;21.40;49.50
69595;DHT22;56800;52.142;5.364;2022-08-07T19:48:08;21.30;49.90
69595;DHT22;56800;52.142;5.364;2022-08-07T19:50:50;21.20;50.10
69595;DHT22;56800;52.142;5.364;2022-08-07T19:53:19;21.20;50.30
69595;DHT22;56800;52.142;5.364;2022-08-07T19:56:09;21.10;50.40
69595;DHT22;56800;52.142;5.364;2022-08-07T19:58:57;21.00;50.70
69595;DHT22;56800;52.142;5.364;2022-08-07T20:01:24;20.90;50.90
69595;DHT22;56800;52.142;5.364;2022-08-07T20:04:16;20.80;51.20
69595;DHT22;56800;52.142;5.364;2022-08-07T20:06:58;20.70;51.40
69595;DHT22;56800;52.142;5.364;2022-08-07T20:09:28;20.70;51.80
69595;DHT22;56800;52.142;5.364;2022-08-07T20:12:20;20.60;52.10
69595;DHT22;56800;52.142;5.364;2022-08-07T20:15:02;20.40;52.30
69595;DHT22;56800;52.142;5.364;2022-08-07T20:17:42;20.40;52.60
69595;DHT22;56800;52.142;5.364;2022-08-07T20:20:10;20.30;52.90
69595;DHT22;56800;52.142;5.364;2022-08-07T20:22:42;20.20;53.20
69595;DHT22;56800;52.142;5.364;2022-08-07T20:25:11;20.10;53.60
69595;DHT22;56800;52.142;5.364;2022-08-07T20:27:47;20.00;53.80
69595;DHT22;56800;52.142;5.364;2022-08-07T20:30:31;20.00;54.10
69595;DHT22;56800;52.142;5.364;2022-08-07T20:33:00;19.80;54.40
69595;DHT22;56800;52.142;5.364;2022-08-07T20:35:31;19.80;54.70
69595;DHT22;56800;52.142;5.364;2022-08-07T20:38:03;19.70;55.00
69595;DHT22;56800;52.142;5.364;2022-08-07T20:40:38;19.60;55.20
69595;DHT22;56800;52.142;5.364;2022-08-07T20:43:07;19.60;55.30
69595;DHT22;56800;52.142;5.364;2022-08-07T20:45:49;19.50;55.50
69595;DHT22;56800;52.142;5.364;2022-08-07T20:48:39;19.40;55.90
69595;DHT22;56800;52.142;5.364;2022-08-07T20:51:29;19.30;56.00
69595;DHT22;56800;52.142;5.364;2022-08-07T20:54:02;19.30;56.40
69595;DHT22;56800;52.142;5.364;2022-08-07T20:56:36;19.20;56.70
69595;DHT22;56800;52.142;5.364;2022-08-07T20:59:14;19.10;56.90
69595;DHT22;56800;52.142;5.364;2022-08-07T21:02:30;19.10;57.10
69595;DHT22;56800;52.142;5.364;2022-08-07T21:05:21;18.90;57.30